sensor_id;sensor_type;location;lat;lon;timestamp;temperature;humidity
18297;DHT22;18066;52.106;5.534;2022-10-31T00:01:40;14.10;99.90
18297;DHT22;18066;52.106;5.534;2022-10-31T00:04:07;14.10;99.90
18297;DHT22;18066;52.106;5.534;2022-10-31T00:06:34;14.10;99.90
18297;DHT22;18066;52.106;5.534;2022-10-31T00:09:03;14.00;99.90
18297;DHT22;18066;52.106;5.534;2022-10-31T00:11:30;14.00;99.90
18297;DHT22;18066;52.106;5.534;2022-10-31T00:13:59;14.00;99.90
18297;DHT22;18066;52.106;5.534;2022-10-31T00:16:27;14.10;99.90
18297;DHT22;18066;52.106;5.534;2022-10-31T00:18:56;14.10;99.90
18297;DHT22;18066;52.106;5.534;2022-10-31T00:21:24;14.20;99.90
18297;DHT22;18066;52.106;5.534;2022-10-31T00:23:51;14.10;99.90
18297;DHT22;18066;52.106;5.534;2022-10-31T00:26:18;14.10;99.90
18297;DHT22;18066;52.106;5.534;2022-10-31T00:28:45;14.10;99.90
18297;DHT22;18066;52.106;5.534;2022-10-31T00:31:13;14.10;99.90
18297;DHT22;18066;52.106;5.534;2022-10-31T00:33:41;14.10;99.90
18297;DHT22;18066;52.106;5.534;2022-10-31T00:36:12;14.00;99.90
18297;DHT22;18066;52.106;5.534;2022-10-31T00:38:39;14.00;99.90
18297;DHT22;18066;52.106;5.534;2022-10-31T00:41:06;14.10;99.90
18297;DHT22;18066;52.106;5.534;2022-10-31T00:43:33;14.10;99.90
18297;DHT22;18066;52.106;5.534;2022-10-31T00:46:00;14.10;99.90
18297;DHT22;18066;52.106;5.534;2022-10-31T00:48:28;14.10;99.90
18297;DHT22;18066;52.106;5.534;2022-10-31T00:50:55;14.00;99.90
18297;DHT22;18066;52.106;5.534;2022-10-31T00:53:22;14.00;99.90
18297;DHT22;18066;52.106;5.534;2022-10-31T00:55:49;14.00;99.90
18297;DHT22;18066;52.106;5.534;2022-10-31T00:58:16;14.00;99.90
18297;DHT22;18066;52.106;5.534;2022-10-31T01:00:43;14.00;99.90
18297;DHT22;18066;52.106;5.534;2022-10-31T01:03:09;14.00;99.90
18297;DHT22;18066;52.106;5.534;2022-10-31T01:05:37;14.00;99.90
18297;DHT22;18066;52.106;5.534;2022-10-31T01:08:04;14.00;99.90
18297;DHT22;18066;52.106;5.534;2022-10-31T01:10:31;14.00;99.90
18297;DHT22;18066;52.106;5.534;2022-10-31T01:12:58;13.90;99.90
18297;DHT22;18066;52.106;5.534;2022-10-31T01:15:24;13.80;99.90
18297;DHT22;18066;52.106;5.534;2022-10-31T01:17:51;13.80;99.90
18297;DHT22;18066;52.106;5.534;2022-10-31T01:20:19;13.90;99.90
18297;DHT22;18066;52.106;5.534;2022-10-31T01:22:50;13.80;99.90
18297;DHT22;18066;52.106;5.534;2022-10-31T01:25:17;13.80;99.90
18297;DHT22;18066;52.106;5.534;2022-10-31T01:27:43;13.80;99.90
18297;DHT22;18066;52.106;5.534;2022-10-31T01:30:11;13.70;99.90
18297;DHT22;18066;52.106;5.534;2022-10-31T01:32:38;13.70;99.90
18297;DHT22;18066;52.106;5.534;2022-10-31T01:35:05;13.60;99.90
18297;DHT22;18066;52.106;5.534;2022-10-31T01:37:32;13.60;99.90
18297;DHT22;18066;52.106;5.534;2022-10-31T01:40:00;13.60;99.90
18297;DHT22;18066;52.106;5.534;2022-10-31T01:42:27;13.50;99.90
18297;DHT22;18066;52.106;5.534;2022-10-31T01:44:57;13.60;99.90
18297;DHT22;18066;52.106;5.534;2022-10-31T01:47:33;13.60;99.90
18297;DHT22;18066;52.106;5.534;2022-10-31T01:50:06;13.50;99.90
18297;DHT22;18066;52.106;5.534;2022-10-31T01:52:37;13.50;99.90
18297;DHT22;18066;52.106;5.534;2022-10-31T01:55:10;13.50;99.90
18297;DHT22;18066;52.106;5.534;2022-10-31T01:57:41;13.50;99.90
18297;DHT22;18066;52.106;5.534;2022-10-31T02:00:11;13.40;99.90
18297;DHT22;18066;52.106;5.534;2022-10-31T02:02:39;13.30;99.90
18297;DHT22;18066;52.106;5.534;2022-10-31T02:05:08;13.20;99.90
18297;DHT22;18066;52.106;5.534;2022-10-31T02:07:38;13.30;99.90
18297;DHT22;18066;52.106;5.534;2022-10-31T02:10:07;13.30;99.90
18297;DHT22;18066;52.106;5.534;2022-10-31T02:12:34;13.20;99.90
18297;DHT22;18066;52.106;5.534;2022-10-31T02:15:03;13.20;99.90
18297;DHT22;18066;52.106;5.534;2022-10-31T02:17:31;13.10;99.90
18297;DHT22;18066;52.106;5.534;2022-10-31T02:20:05;13.00;99.90
18297;DHT22;18066;52.106;5.534;2022-10-31T02:22:40;13.00;99.90
18297;DHT22;18066;52.106;5.534;2022-10-31T02:25:30;12.90;99.90
18297;DHT22;18066;52.106;5.534;2022-10-31T02:28:30;12.90;99.90
18297;DHT22;18066;52.106;5.534;2022-10-31T02:31:12;12.90;99.90
18297;DHT22;18066;52.106;5.534;2022-10-31T02:33:44;12.90;99.90
18297;DHT22;18066;52.106;5.534;2022-10-31T02:36:22;12.80;99.90
18297;DHT22;18066;52.106;5.534;2022-10-31T02:38:58;12.80;99.90
18297;DHT22;18066;52.106;5.534;2022-10-31T02:41:32;12.80;99.90
18297;DHT22;18066;52.106;5.534;2022-10-31T02:44:07;12.70;99.90
18297;DHT22;18066;52.106;5.534;2022-10-31T02:46:39;12.70;99.90
18297;DHT22;18066;52.106;5.534;2022-10-31T02:49:16;12.60;99.90
18297;DHT22;18066;52.106;5.534;2022-10-31T02:51:43;12.60;99.90
18297;DHT22;18066;52.106;5.534;2022-10-31T02:54:22;12.50;99.90
18297;DHT22;18066;52.106;5.534;2022-10-31T02:56:52;12.50;99.90
18297;DHT22;18066;52.106;5.534;2022-10-31T02:59:21;12.50;99.90
18297;DHT22;18066;52.106;5.534;2022-10-31T03:05:01;12.50;99.90
18297;DHT22;18066;52.106;5.534;2022-10-31T03:07:38;12.40;99.90
18297;DHT22;18066;52.106;5.534;2022-10-31T03:10:16;12.40;99.90
18297;DHT22;18066;52.106;5.534;2022-10-31T03:12:50;12.30;99.90
18297;DHT22;18066;52.106;5.534;2022-10-31T03:15:24;12.30;99.90
18297;DHT22;18066;52.106;5.534;2022-10-31T03:17:57;12.20;99.90
18297;DHT22;18066;52.106;5.534;2022-10-31T03:20:31;12.20;99.90
18297;DHT22;18066;52.106;5.534;2022-10-31T03:23:02;12.20;99.90
18297;DHT22;18066;52.106;5.534;2022-10-31T03:25:30;12.20;99.90
18297;DHT22;18066;52.106;5.534;2022-10-31T03:27:58;12.20;99.90
18297;DHT22;18066;52.106;5.534;2022-10-31T03:30:26;12.20;99.90
18297;DHT22;18066;52.106;5.534;2022-10-31T03:32:56;12.20;99.90
18297;DHT22;18066;52.106;5.534;2022-10-31T03:35:26;12.20;99.90
18297;DHT22;18066;52.106;5.534;2022-10-31T03:37:54;12.20;99.90
18297;DHT22;18066;52.106;5.534;2022-10-31T03:40:23;12.30;99.90
18297;DHT22;18066;52.106;5.534;2022-10-31T03:42:56;12.30;99.90
18297;DHT22;18066;52.106;5.534;2022-10-31T03:45:26;12.30;99.90
18297;DHT22;18066;52.106;5.534;2022-10-31T03:47:56;12.30;99.90
18297;DHT22;18066;52.106;5.534;2022-10-31T03:50:27;12.20;99.90
18297;DHT22;18066;52.106;5.534;2022-10-31T03:52:57;12.10;99.90
18297;DHT22;18066;52.106;5.534;2022-10-31T03:55:29;12.10;99.90
18297;DHT22;18066;52.106;5.534;2022-10-31T03:58:00;12.00;99.90
18297;DHT22;18066;52.106;5.534;2022-10-31T04:00:30;12.00;99.90
18297;DHT22;18066;52.106;5.534;2022-10-31T04:03:03;12.00;99.90
18297;DHT22;18066;52.106;5.534;2022-10-31T04:05:32;12.00;99.90
18297;DHT22;18066;52.106;5.534;2022-10-31T04:08:01;12.00;99.90
18297;DHT22;18066;52.106;5.534;2022-10-31T04:10:30;12.00;99.90
18297;DHT22;18066;52.106;5.534;2022-10-31T04:13:01;12.00;99.90
18297;DHT22;18066;52.106;5.534;2022-10-31T04:15:30;12.00;99.90
18297;DHT22;18066;52.106;5.534;2022-10-31T04:18:00;12.00;99.90
18297;DHT22;18066;52.106;5.534;2022-10-31T04:20:32;12.00;99.90
18297;DHT22;18066;52.106;5.534;2022-10-31T04:22:59;11.90;99.90
18297;DHT22;18066;52.106;5.534;2022-10-31T04:25:26;11.90;99.90
18297;DHT22;18066;52.106;5.534;2022-10-31T04:27:53;11.80;99.90
18297;DHT22;18066;52.106;5.534;2022-10-31T04:30:20;11.80;99.90
18297;DHT22;18066;52.106;5.534;2022-10-31T04:32:47;11.70;99.90
18297;DHT22;18066;52.106;5.534;2022-10-31T04:35:15;11.70;99.90
18297;DHT22;18066;52.106;5.534;2022-10-31T04:37:42;11.70;99.90
18297;DHT22;18066;52.106;5.534;2022-10-31T04:40:10;11.60;99.90
18297;DHT22;18066;52.106;5.534;2022-10-31T04:42:37;11.60;99.90
18297;DHT22;18066;52.106;5.534;2022-10-31T04:45:05;11.70;99.90
18297;DHT22;18066;52.106;5.534;2022-10-31T04:47:32;11.70;99.90
18297;DHT22;18066;52.106;5.534;2022-10-31T04:49:59;11.60;99.90
18297;DHT22;18066;52.106;5.534;2022-10-31T04:52:27;11.60;99.90
18297;DHT22;18066;52.106;5.534;2022-10-31T04:54:54;11.50;99.90
18297;DHT22;18066;52.106;5.534;2022-10-31T04:57:21;11.60;99.90
18297;DHT22;18066;52.106;5.534;2022-10-31T04:59:48;11.60;99.90
18297;DHT22;18066;52.106;5.534;2022-10-31T05:02:14;11.60;99.90
18297;DHT22;18066;52.106;5.534;2022-10-31T05:04:41;11.60;99.90
18297;DHT22;18066;52.106;5.534;2022-10-31T05:07:08;11.60;99.90
18297;DHT22;18066;52.106;5.534;2022-10-31T05:09:36;11.50;99.90
18297;DHT22;18066;52.106;5.534;2022-10-31T05:12:03;11.50;99.90
18297;DHT22;18066;52.106;5.534;2022-10-31T05:14:30;11.60;99.90
18297;DHT22;18066;52.106;5.534;2022-10-31T05:16:57;11.70;99.90
18297;DHT22;18066;52.106;5.534;2022-10-31T05:19:24;11.70;99.90
18297;DHT22;18066;52.106;5.534;2022-10-31T05:21:50;11.70;99.90
18297;DHT22;18066;52.106;5.534;2022-10-31T05:24:17;11.70;99.90
18297;DHT22;18066;52.106;5.534;2022-10-31T05:26:49;11.70;99.90
18297;DHT22;18066;52.106;5.534;2022-10-31T05:29:15;11.70;99.90
18297;DHT22;18066;52.106;5.534;2022-10-31T05:31:42;11.70;99.90
18297;DHT22;18066;52.106;5.534;2022-10-31T05:34:09;11.60;99.90
18297;DHT22;18066;52.106;5.534;2022-10-31T05:36:36;11.50;99.90
18297;DHT22;18066;52.106;5.534;2022-10-31T05:39:03;11.50;99.90
18297;DHT22;18066;52.106;5.534;2022-10-31T05:41:29;11.40;99.90
18297;DHT22;18066;52.106;5.534;2022-10-31T05:43:58;11.40;99.90
18297;DHT22;18066;52.106;5.534;2022-10-31T05:46:24;11.50;99.90
18297;DHT22;18066;52.106;5.534;2022-10-31T05:48:51;11.40;99.90
18297;DHT22;18066;52.106;5.534;2022-10-31T05:51:18;11.40;99.90
18297;DHT22;18066;52.106;5.534;2022-10-31T05:53:46;11.30;99.90
18297;DHT22;18066;52.106;5.534;2022-10-31T05:56:12;11.30;99.90
18297;DHT22;18066;52.106;5.534;2022-10-31T05:58:39;11.30;99.90
18297;DHT22;18066;52.106;5.534;2022-10-31T06:01:07;11.30;99.90
18297;DHT22;18066;52.106;5.534;2022-10-31T06:03:34;11.20;99.90
18297;DHT22;18066;52.106;5.534;2022-10-31T06:06:01;11.20;99.90
18297;DHT22;18066;52.106;5.534;2022-10-31T06:08:28;11.20;99.90
18297;DHT22;18066;52.106;5.534;2022-10-31T06:10:57;11.20;99.90
18297;DHT22;18066;52.106;5.534;2022-10-31T06:13:24;11.30;99.90
18297;DHT22;18066;52.106;5.534;2022-10-31T06:15:50;11.30;99.90
18297;DHT22;18066;52.106;5.534;2022-10-31T06:18:19;11.30;99.90
18297;DHT22;18066;52.106;5.534;2022-10-31T06:20:46;11.40;99.90
18297;DHT22;18066;52.106;5.534;2022-10-31T06:23:12;11.40;99.90
18297;DHT22;18066;52.106;5.534;2022-10-31T06:25:39;11.50;99.90
18297;DHT22;18066;52.106;5.534;2022-10-31T06:28:06;11.60;99.90
18297;DHT22;18066;52.106;5.534;2022-10-31T06:30:33;11.60;99.90
18297;DHT22;18066;52.106;5.534;2022-10-31T06:33:03;11.60;99.90
18297;DHT22;18066;52.106;5.534;2022-10-31T06:35:32;11.70;99.90
18297;DHT22;18066;52.106;5.534;2022-10-31T06:37:59;11.70;99.90
18297;DHT22;18066;52.106;5.534;2022-10-31T06:40:26;11.70;99.90
18297;DHT22;18066;52.106;5.534;2022-10-31T06:42:57;11.70;99.90
18297;DHT22;18066;52.106;5.534;2022-10-31T06:45:23;11.80;99.90
18297;DHT22;18066;52.106;5.534;2022-10-31T06:47:51;11.90;99.90
18297;DHT22;18066;52.106;5.534;2022-10-31T06:50:19;11.90;99.90
18297;DHT22;18066;52.106;5.534;2022-10-31T06:52:51;11.90;99.90
18297;DHT22;18066;52.106;5.534;2022-10-31T06:55:18;12.00;99.90
18297;DHT22;18066;52.106;5.534;2022-10-31T06:57:51;12.00;99.90
18297;DHT22;18066;52.106;5.534;2022-10-31T07:00:18;12.00;99.90
18297;DHT22;18066;52.106;5.534;2022-10-31T07:02:53;12.00;99.90
18297;DHT22;18066;52.106;5.534;2022-10-31T07:05:19;11.90;99.90
18297;DHT22;18066;52.106;5.534;2022-10-31T07:07:46;11.90;99.90
18297;DHT22;18066;52.106;5.534;2022-10-31T07:10:14;11.90;99.90
18297;DHT22;18066;52.106;5.534;2022-10-31T07:12:41;11.90;99.90
18297;DHT22;18066;52.106;5.534;2022-10-31T07:15:08;11.90;99.90
18297;DHT22;18066;52.106;5.534;2022-10-31T07:17:35;11.90;99.90
18297;DHT22;18066;52.106;5.534;2022-10-31T07:20:03;12.00;99.90
18297;DHT22;18066;52.106;5.534;2022-10-31T07:22:33;12.10;99.90
18297;DHT22;18066;52.106;5.534;2022-10-31T07:25:00;12.20;99.90
18297;DHT22;18066;52.106;5.534;2022-10-31T07:27:28;12.20;99.90
18297;DHT22;18066;52.106;5.534;2022-10-31T07:29:55;12.30;99.90
18297;DHT22;18066;52.106;5.534;2022-10-31T07:32:22;12.30;99.90
18297;DHT22;18066;52.106;5.534;2022-10-31T07:34:48;12.40;99.90
18297;DHT22;18066;52.106;5.534;2022-10-31T07:37:15;12.50;99.90
18297;DHT22;18066;52.106;5.534;2022-10-31T07:39:42;12.50;99.90
18297;DHT22;18066;52.106;5.534;2022-10-31T07:42:09;12.50;99.90
18297;DHT22;18066;52.106;5.534;2022-10-31T07:44:37;12.60;99.90
18297;DHT22;18066;52.106;5.534;2022-10-31T07:47:03;12.60;99.90
18297;DHT22;18066;52.106;5.534;2022-10-31T07:49:30;12.60;99.90
18297;DHT22;18066;52.106;5.534;2022-10-31T07:51:57;12.60;99.90
18297;DHT22;18066;52.106;5.534;2022-10-31T07:54:24;12.60;99.90
18297;DHT22;18066;52.106;5.534;2022-10-31T07:56:50;12.60;99.90
18297;DHT22;18066;52.106;5.534;2022-10-31T07:59:17;12.60;99.90
18297;DHT22;18066;52.106;5.534;2022-10-31T08:01:46;12.60;99.90
18297;DHT22;18066;52.106;5.534;2022-10-31T08:04:12;12.60;99.90
18297;DHT22;18066;52.106;5.534;2022-10-31T08:06:39;12.70;99.90
18297;DHT22;18066;52.106;5.534;2022-10-31T08:09:06;12.70;99.90
18297;DHT22;18066;52.106;5.534;2022-10-31T08:11:33;12.80;99.90
18297;DHT22;18066;52.106;5.534;2022-10-31T08:13:59;12.80;99.90
18297;DHT22;18066;52.106;5.534;2022-10-31T08:16:26;12.90;99.90
18297;DHT22;18066;52.106;5.534;2022-10-31T08:18:55;12.90;99.90
18297;DHT22;18066;52.106;5.534;2022-10-31T08:21:22;13.00;99.90
18297;DHT22;18066;52.106;5.534;2022-10-31T08:23:49;13.20;99.90
18297;DHT22;18066;52.106;5.534;2022-10-31T08:26:16;13.30;99.90
18297;DHT22;18066;52.106;5.534;2022-10-31T08:28:43;13.40;99.90
18297;DHT22;18066;52.106;5.534;2022-10-31T08:31:09;13.60;99.90
18297;DHT22;18066;52.106;5.534;2022-10-31T08:33:36;13.70;99.90
18297;DHT22;18066;52.106;5.534;2022-10-31T08:36:05;13.80;99.90
18297;DHT22;18066;52.106;5.534;2022-10-31T08:38:32;13.90;99.90
18297;DHT22;18066;52.106;5.534;2022-10-31T08:40:59;14.00;99.90
18297;DHT22;18066;52.106;5.534;2022-10-31T08:43:25;14.10;99.90
18297;DHT22;18066;52.106;5.534;2022-10-31T08:45:52;14.20;99.90
18297;DHT22;18066;52.106;5.534;2022-10-31T08:48:20;14.30;99.90
18297;DHT22;18066;52.106;5.534;2022-10-31T08:50:47;14.30;99.90
18297;DHT22;18066;52.106;5.534;2022-10-31T08:53:17;14.20;99.90
18297;DHT22;18066;52.106;5.534;2022-10-31T08:55:45;14.30;99.90
18297;DHT22;18066;52.106;5.534;2022-10-31T08:58:14;14.40;99.90
18297;DHT22;18066;52.106;5.534;2022-10-31T09:00:41;14.50;99.90
18297;DHT22;18066;52.106;5.534;2022-10-31T09:03:11;14.60;99.90
18297;DHT22;18066;52.106;5.534;2022-10-31T09:05:38;14.70;99.90
18297;DHT22;18066;52.106;5.534;2022-10-31T09:08:05;14.80;99.90
18297;DHT22;18066;52.106;5.534;2022-10-31T09:10:35;14.90;99.90
18297;DHT22;18066;52.106;5.534;2022-10-31T09:13:05;15.00;99.90
18297;DHT22;18066;52.106;5.534;2022-10-31T09:15:33;15.10;99.90
18297;DHT22;18066;52.106;5.534;2022-10-31T09:18:00;15.10;99.90
18297;DHT22;18066;52.106;5.534;2022-10-31T09:20:27;15.20;99.90
18297;DHT22;18066;52.106;5.534;2022-10-31T09:22:57;15.30;99.90
18297;DHT22;18066;52.106;5.534;2022-10-31T09:25:25;15.40;99.90
18297;DHT22;18066;52.106;5.534;2022-10-31T09:27:56;15.50;99.90
18297;DHT22;18066;52.106;5.534;2022-10-31T09:30:23;15.60;99.90
18297;DHT22;18066;52.106;5.534;2022-10-31T09:32:54;15.60;99.90
18297;DHT22;18066;52.106;5.534;2022-10-31T09:35:22;15.70;99.90
18297;DHT22;18066;52.106;5.534;2022-10-31T09:37:53;15.70;99.90
18297;DHT22;18066;52.106;5.534;2022-10-31T09:40:21;15.80;99.90
18297;DHT22;18066;52.106;5.534;2022-10-31T09:42:57;15.80;99.90
18297;DHT22;18066;52.106;5.534;2022-10-31T09:45:29;15.80;99.90
18297;DHT22;18066;52.106;5.534;2022-10-31T09:48:07;15.90;99.90
18297;DHT22;18066;52.106;5.534;2022-10-31T09:50:40;16.00;99.90
18297;DHT22;18066;52.106;5.534;2022-10-31T09:53:12;16.00;99.90
18297;DHT22;18066;52.106;5.534;2022-10-31T09:55:43;16.20;99.90
18297;DHT22;18066;52.106;5.534;2022-10-31T09:58:16;16.20;99.90
18297;DHT22;18066;52.106;5.534;2022-10-31T10:00:46;16.40;99.90
18297;DHT22;18066;52.106;5.534;2022-10-31T10:03:20;16.50;99.90
18297;DHT22;18066;52.106;5.534;2022-10-31T10:05:53;16.60;99.90
18297;DHT22;18066;52.106;5.534;2022-10-31T10:08:25;16.70;99.90
18297;DHT22;18066;52.106;5.534;2022-10-31T10:10:57;16.70;99.90
18297;DHT22;18066;52.106;5.534;2022-10-31T10:13:41;16.80;99.90
18297;DHT22;18066;52.106;5.534;2022-10-31T10:16:18;16.70;99.90
18297;DHT22;18066;52.106;5.534;2022-10-31T10:18:57;16.90;99.90
18297;DHT22;18066;52.106;5.534;2022-10-31T10:21:32;17.00;99.90
18297;DHT22;18066;52.106;5.534;2022-10-31T10:24:12;16.90;99.90
18297;DHT22;18066;52.106;5.534;2022-10-31T10:26:46;17.00;99.90
18297;DHT22;18066;52.106;5.534;2022-10-31T10:29:29;17.00;99.90
18297;DHT22;18066;52.106;5.534;2022-10-31T10:32:00;17.10;99.90
18297;DHT22;18066;52.106;5.534;2022-10-31T10:34:31;17.10;99.90
18297;DHT22;18066;52.106;5.534;2022-10-31T10:37:01;17.10;99.90
18297;DHT22;18066;52.106;5.534;2022-10-31T10:39:32;17.10;99.90
18297;DHT22;18066;52.106;5.534;2022-10-31T10:42:09;17.20;99.90
18297;DHT22;18066;52.106;5.534;2022-10-31T10:45:13;17.20;99.90
18297;DHT22;18066;52.106;5.534;2022-10-31T10:48:05;17.20;99.90
18297;DHT22;18066;52.106;5.534;2022-10-31T10:50:36;17.20;99.90
18297;DHT22;18066;52.106;5.534;2022-10-31T10:53:12;17.20;99.90
18297;DHT22;18066;52.106;5.534;2022-10-31T10:55:53;17.30;99.90
18297;DHT22;18066;52.106;5.534;2022-10-31T10:58:23;17.40;99.90
18297;DHT22;18066;52.106;5.534;2022-10-31T11:00:53;17.50;99.90
18297;DHT22;18066;52.106;5.534;2022-10-31T11:03:21;17.50;99.90
18297;DHT22;18066;52.106;5.534;2022-10-31T11:05:50;17.60;99.90
18297;DHT22;18066;52.106;5.534;2022-10-31T11:08:24;17.60;99.90
18297;DHT22;18066;52.106;5.534;2022-10-31T11:10:59;17.60;99.90
18297;DHT22;18066;52.106;5.534;2022-10-31T11:13:27;17.60;99.90
18297;DHT22;18066;52.106;5.534;2022-10-31T11:15:59;17.50;99.90
18297;DHT22;18066;52.106;5.534;2022-10-31T11:18:28;17.60;99.90
18297;DHT22;18066;52.106;5.534;2022-10-31T11:20:57;17.60;99.90
18297;DHT22;18066;52.106;5.534;2022-10-31T11:23:25;17.50;99.90
18297;DHT22;18066;52.106;5.534;2022-10-31T11:25:55;17.40;99.90
18297;DHT22;18066;52.106;5.534;2022-10-31T11:28:22;17.30;99.90
18297;DHT22;18066;52.106;5.534;2022-10-31T11:30:51;17.30;99.90
18297;DHT22;18066;52.106;5.534;2022-10-31T11:33:24;17.30;99.90
18297;DHT22;18066;52.106;5.534;2022-10-31T11:35:53;17.40;99.90
18297;DHT22;18066;52.106;5.534;2022-10-31T11:38:22;17.50;99.90
18297;DHT22;18066;52.106;5.534;2022-10-31T11:40:54;17.40;99.90
18297;DHT22;18066;52.106;5.534;2022-10-31T11:43:22;17.40;99.90
18297;DHT22;18066;52.106;5.534;2022-10-31T11:45:50;17.50;99.90
18297;DHT22;18066;52.106;5.534;2022-10-31T11:48:19;17.50;99.90
18297;DHT22;18066;52.106;5.534;2022-10-31T11:50:52;17.60;99.90
18297;DHT22;18066;52.106;5.534;2022-10-31T11:53:24;17.60;99.90
18297;DHT22;18066;52.106;5.534;2022-10-31T11:56:02;17.60;99.90
18297;DHT22;18066;52.106;5.534;2022-10-31T11:58:30;17.70;99.90
18297;DHT22;18066;52.106;5.534;2022-10-31T12:00:58;17.70;99.90
18297;DHT22;18066;52.106;5.534;2022-10-31T12:03:41;17.70;99.90
18297;DHT22;18066;52.106;5.534;2022-10-31T12:06:15;17.70;99.90
18297;DHT22;18066;52.106;5.534;2022-10-31T12:08:44;17.70;99.90
18297;DHT22;18066;52.106;5.534;2022-10-31T12:11:23;17.70;99.90
18297;DHT22;18066;52.106;5.534;2022-10-31T12:14:05;17.70;99.90
18297;DHT22;18066;52.106;5.534;2022-10-31T12:16:39;17.60;99.90
18297;DHT22;18066;52.106;5.534;2022-10-31T12:19:12;17.60;99.90
18297;DHT22;18066;52.106;5.534;2022-10-31T12:21:58;17.60;99.90
18297;DHT22;18066;52.106;5.534;2022-10-31T12:24:40;17.60;99.90
18297;DHT22;18066;52.106;5.534;2022-10-31T12:27:18;17.70;99.90
18297;DHT22;18066;52.106;5.534;2022-10-31T12:30:09;17.70;99.90
18297;DHT22;18066;52.106;5.534;2022-10-31T12:32:48;17.80;99.90
18297;DHT22;18066;52.106;5.534;2022-10-31T12:35:33;17.90;99.90
18297;DHT22;18066;52.106;5.534;2022-10-31T12:38:23;18.10;99.90
18297;DHT22;18066;52.106;5.534;2022-10-31T12:41:06;18.20;99.90
18297;DHT22;18066;52.106;5.534;2022-10-31T12:43:45;18.30;99.90
18297;DHT22;18066;52.106;5.534;2022-10-31T12:46:20;18.40;99.90
18297;DHT22;18066;52.106;5.534;2022-10-31T12:49:05;18.40;99.90
18297;DHT22;18066;52.106;5.534;2022-10-31T12:51:42;18.50;99.90
18297;DHT22;18066;52.106;5.534;2022-10-31T12:54:25;18.50;99.90
18297;DHT22;18066;52.106;5.534;2022-10-31T12:57:01;18.60;99.90
18297;DHT22;18066;52.106;5.534;2022-10-31T12:59:35;18.60;99.90
18297;DHT22;18066;52.106;5.534;2022-10-31T13:02:10;18.50;99.90
18297;DHT22;18066;52.106;5.534;2022-10-31T13:04:44;18.50;99.90
18297;DHT22;18066;52.106;5.534;2022-10-31T13:07:18;18.50;99.90
18297;DHT22;18066;52.106;5.534;2022-10-31T13:09:51;18.50;99.90
18297;DHT22;18066;52.106;5.534;2022-10-31T13:12:22;18.50;99.90
18297;DHT22;18066;52.106;5.534;2022-10-31T13:14:51;18.50;99.90
18297;DHT22;18066;52.106;5.534;2022-10-31T13:17:25;18.40;99.90
18297;DHT22;18066;52.106;5.534;2022-10-31T13:19:56;18.40;99.90
18297;DHT22;18066;52.106;5.534;2022-10-31T13:22:27;18.40;99.90
18297;DHT22;18066;52.106;5.534;2022-10-31T13:24:59;18.30;99.90
18297;DHT22;18066;52.106;5.534;2022-10-31T13:27:32;18.30;99.90
18297;DHT22;18066;52.106;5.534;2022-10-31T13:30:02;18.30;99.90
18297;DHT22;18066;52.106;5.534;2022-10-31T13:32:37;18.20;99.90
18297;DHT22;18066;52.106;5.534;2022-10-31T13:35:12;18.20;99.90
18297;DHT22;18066;52.106;5.534;2022-10-31T13:37:44;18.20;99.90
18297;DHT22;18066;52.106;5.534;2022-10-31T13:40:24;18.20;99.90
18297;DHT22;18066;52.106;5.534;2022-10-31T13:42:59;18.30;99.90
18297;DHT22;18066;52.106;5.534;2022-10-31T13:45:28;18.30;99.90
18297;DHT22;18066;52.106;5.534;2022-10-31T13:47:57;18.40;99.90
18297;DHT22;18066;52.106;5.534;2022-10-31T13:50:25;18.50;99.90
18297;DHT22;18066;52.106;5.534;2022-10-31T13:53:09;18.60;99.90
18297;DHT22;18066;52.106;5.534;2022-10-31T13:55:40;18.60;99.90
18297;DHT22;18066;52.106;5.534;2022-10-31T13:58:21;18.80;99.90
18297;DHT22;18066;52.106;5.534;2022-10-31T14:01:03;18.80;99.90
18297;DHT22;18066;52.106;5.534;2022-10-31T14:03:33;18.70;99.90
18297;DHT22;18066;52.106;5.534;2022-10-31T14:06:01;18.70;99.90
18297;DHT22;18066;52.106;5.534;2022-10-31T14:08:31;18.70;99.90
18297;DHT22;18066;52.106;5.534;2022-10-31T14:11:01;18.60;99.90
18297;DHT22;18066;52.106;5.534;2022-10-31T14:13:32;18.60;99.90
18297;DHT22;18066;52.106;5.534;2022-10-31T14:16:04;18.60;99.90
18297;DHT22;18066;52.106;5.534;2022-10-31T14:18:34;18.50;99.90
18297;DHT22;18066;52.106;5.534;2022-10-31T14:21:14;18.40;99.90
18297;DHT22;18066;52.106;5.534;2022-10-31T14:23:41;18.40;99.90
18297;DHT22;18066;52.106;5.534;2022-10-31T14:26:33;18.30;99.90
18297;DHT22;18066;52.106;5.534;2022-10-31T14:29:02;18.20;99.90
18297;DHT22;18066;52.106;5.534;2022-10-31T14:31:53;18.10;99.90
18297;DHT22;18066;52.106;5.534;2022-10-31T14:34:23;18.00;99.90
18297;DHT22;18066;52.106;5.534;2022-10-31T14:36:59;18.00;99.90
18297;DHT22;18066;52.106;5.534;2022-10-31T14:39:31;18.00;99.90
18297;DHT22;18066;52.106;5.534;2022-10-31T14:42:12;17.90;99.90
18297;DHT22;18066;52.106;5.534;2022-10-31T14:45:01;17.90;99.90
18297;DHT22;18066;52.106;5.534;2022-10-31T14:47:39;17.90;99.90
18297;DHT22;18066;52.106;5.534;2022-10-31T14:50:20;18.00;99.90
18297;DHT22;18066;52.106;5.534;2022-10-31T14:52:50;17.80;99.90
18297;DHT22;18066;52.106;5.534;2022-10-31T14:55:18;17.70;99.90
18297;DHT22;18066;52.106;5.534;2022-10-31T14:57:50;17.80;99.90
18297;DHT22;18066;52.106;5.534;2022-10-31T15:00:20;17.70;99.90
18297;DHT22;18066;52.106;5.534;2022-10-31T15:02:54;17.60;99.90
18297;DHT22;18066;52.106;5.534;2022-10-31T15:05:23;17.40;99.90
18297;DHT22;18066;52.106;5.534;2022-10-31T15:07:51;17.60;99.90
18297;DHT22;18066;52.106;5.534;2022-10-31T15:10:23;17.50;99.90
18297;DHT22;18066;52.106;5.534;2022-10-31T15:12:52;17.50;99.90
18297;DHT22;18066;52.106;5.534;2022-10-31T15:15:21;17.50;99.90
18297;DHT22;18066;52.106;5.534;2022-10-31T15:17:51;17.50;99.90
18297;DHT22;18066;52.106;5.534;2022-10-31T15:20:20;17.40;99.90
18297;DHT22;18066;52.106;5.534;2022-10-31T15:22:49;17.40;99.90
18297;DHT22;18066;52.106;5.534;2022-10-31T15:25:18;17.30;99.90
18297;DHT22;18066;52.106;5.534;2022-10-31T15:27:46;17.30;99.90
18297;DHT22;18066;52.106;5.534;2022-10-31T15:30:20;17.20;99.90
18297;DHT22;18066;52.106;5.534;2022-10-31T15:32:48;17.20;99.90
18297;DHT22;18066;52.106;5.534;2022-10-31T15:35:22;17.20;99.90
18297;DHT22;18066;52.106;5.534;2022-10-31T15:37:50;17.20;99.90
18297;DHT22;18066;52.106;5.534;2022-10-31T15:40:20;17.10;99.90
18297;DHT22;18066;52.106;5.534;2022-10-31T15:42:51;17.00;99.90
18297;DHT22;18066;52.106;5.534;2022-10-31T15:45:22;17.00;99.90
18297;DHT22;18066;52.106;5.534;2022-10-31T15:47:54;17.00;99.90
18297;DHT22;18066;52.106;5.534;2022-10-31T15:50:27;17.00;99.90
18297;DHT22;18066;52.106;5.534;2022-10-31T15:52:55;16.90;99.90
18297;DHT22;18066;52.106;5.534;2022-10-31T15:55:24;16.80;99.90